Delight, Arkansas
Current Conditions -  °F | °C
As of 11:56 AM on Sunday 25 Jan 2015 (Local Time) from KADF Reporting Station
Clear Clear  
Wind Chill: 62°   Ceiling: Unl
Heat Index: 62°   Visibility: 10mi
Dew Point: 39°   Wind: 14mph
Humidity: 43%   Direction: 270°W
Pressure: 29.8"   Gusts: NA
Location:  34.03°N, 93.5°W
Report Text: KADF 251756Z AUTO 27012KT 250V310 10SM CLR 17/04 A2980 RMK AO2 58012 T01660038 10166 20033 SLP106
Loading
Personal Weather Stations






























Interactive Weather Map New forecast layout! Learn more

10-Day Weather Forecast

Advertisements
Track Severe Weather on mobile